Time;durP1;ratioP1;P1;durP2;ratioP2;P2;SDS_P1;SDS_P2;PMS_P1;PMS_P2;Temp;Humidity;BMP_temperature;BMP_pressure;BME280_temperature;BME280_humidity;BME280_pressure;Samples;Min_cycle;Max_cycle;Signal;HPM_P1;HPM_P2
2023/07/05 00:02:13;;;;;;;6.45;5.18;;;;;;;;;;5066066;28;20010;-78
2023/07/05 00:04:39;;;;;;;14.18;5.88;;;;;;;;;;5065072;28;20558;-78
2023/07/05 00:07:05;;;;;;;10.57;5.75;;;;;;;;;;5051808;28;20025;-80
2023/07/05 00:09:31;;;;;;;8.80;5.80;;;;;;;;;;5065325;28;20030;-78
2023/07/05 00:11:57;;;;;;;7.28;5.20;;;;;;;;;;5048521;28;20036;-80
2023/07/05 00:14:23;;;;;;;10.68;5.63;;;;;;;;;;5052620;28;20239;-79
2023/07/05 00:16:49;;;;;;;11.65;5.25;;;;;;;;;;5049558;28;20032;-78
2023/07/05 00:19:15;;;;;;;9.85;5.32;;;;;;;;;;5051400;28;20048;-79
2023/07/05 00:21:41;;;;;;;8.35;4.43;;;;;;;;;;5049268;28;20040;-79
2023/07/05 00:24:07;;;;;;;7.82;5.65;;;;;;;;;;5052957;28;20049;-79
2023/07/05 00:26:33;;;;;;;9.27;4.43;;;;;;;;;;5055481;28;20033;-78
2023/07/05 00:28:59;;;;;;;6.22;4.30;;;;;;;;;;5047926;28;20025;-80
2023/07/05 00:31:25;;;;;;;7.35;4.40;;;;;;;;;;5066422;28;20049;-79
2023/07/05 00:33:51;;;;;;;7.32;4.40;;;;;;;;;;5065808;28;20085;-79
2023/07/05 00:36:17;;;;;;;7.25;4.07;;;;;;;;;;5048297;28;20040;-82
2023/07/05 00:38:44;;;;;;;9.15;4.72;;;;;;;;;;5049948;28;20040;-79
2023/07/05 00:41:10;;;;;;;6.00;4.35;;;;;;;;;;5048157;28;20033;-77
2023/07/05 00:43:39;;;;;;;6.25;4.38;;;;;;;;;;5063361;28;20089;-80
2023/07/05 00:46:14;;;;;;;5.30;3.38;;;;;;;;;;5050208;28;20029;-78
2023/07/05 00:48:52;;;;;;;7.57;3.42;;;;;;;;;;5050685;28;20018;-79
2023/07/05 00:51:29;;;;;;;5.82;4.00;;;;;;;;;;5062248;28;20076;-77
2023/07/05 00:53:57;;;;;;;8.48;4.82;;;;;;;;;;5047312;28;20033;-80
2023/07/05 00:56:36;;;;;;;5.55;3.67;;;;;;;;;;5055426;28;20033;-77
2023/07/05 00:59:05;;;;;;;5.43;3.85;;;;;;;;;;5049272;28;20022;-77
2023/07/05 01:01:31;;;;;;;6.07;3.65;;;;;;;;;;5045447;28;20052;-78
2023/07/05 01:03:59;;;;;;;7.53;3.95;;;;;;;;;;5046990;28;20041;-79
2023/07/05 01:06:25;;;;;;;7.38;4.28;;;;;;;;;;5055896;28;20029;-78
2023/07/05 01:08:52;;;;;;;5.38;3.67;;;;;;;;;;5052797;28;20033;-78
2023/07/05 01:11:37;;;;;;;6.75;4.07;;;;;;;;;;5054084;28;20022;-78
2023/07/05 01:14:08;;;;;;;6.47;4.30;;;;;;;;;;5048440;28;20044;-78
2023/07/05 01:16:39;;;;;;;7.07;3.90;;;;;;;;;;5046112;28;20026;-78
2023/07/05 01:19:16;;;;;;;8.30;3.85;;;;;;;;;;5046386;28;20053;-79
2023/07/05 01:22:09;;;;;;;4.47;3.28;;;;;;;;;;5050050;28;20030;-78
2023/07/05 01:24:48;;;;;;;6.55;3.72;;;;;;;;;;5044690;28;20042;-78
2023/07/05 01:27:26;;;;;;;5.55;3.33;;;;;;;;;;5063718;28;20031;-77
2023/07/05 01:30:04;;;;;;;5.45;3.40;;;;;;;;;;5053128;28;20052;-78
2023/07/05 01:32:39;;;;;;;4.15;2.53;;;;;;;;;;5047394;28;20052;-76
2023/07/05 01:35:17;;;;;;;4.13;2.95;;;;;;;;;;5047843;28;20033;-78
2023/07/05 01:37:44;;;;;;;8.68;3.80;;;;;;;;;;5061717;28;20105;-79
2023/07/05 01:40:22;;;;;;;7.90;2.60;;;;;;;;;;5045322;28;20021;-78
2023/07/05 01:42:50;;;;;;;3.58;2.53;;;;;;;;;;5047498;28;20026;-79
2023/07/05 01:45:19;;;;;;;4.93;3.50;;;;;;;;;;5045777;28;20012;-80
2023/07/05 01:47:51;;;;;;;4.00;2.78;;;;;;;;;;5045221;28;20025;-77
2023/07/05 01:50:24;;;;;;;3.60;2.58;;;;;;;;;;5046385;28;20033;-78
2023/07/05 01:53:09;;;;;;;5.18;2.53;;;;;;;;;;5044422;28;20049;-81
2023/07/05 01:55:48;;;;;;;4.50;2.20;;;;;;;;;;5062099;28;20052;-79
2023/07/05 01:58:18;;;;;;;4.90;2.50;;;;;;;;;;5063170;28;20030;-78
2023/07/05 02:00:46;;;;;;;3.22;2.50;;;;;;;;;;5063182;28;20038;-77
2023/07/05 02:03:13;;;;;;;9.63;2.70;;;;;;;;;;5061481;28;20017;-79
2023/07/05 02:05:39;;;;;;;4.15;2.78;;;;;;;;;;5045663;28;20105;-79
2023/07/05 02:08:06;;;;;;;3.90;2.33;;;;;;;;;;5044978;28;20025;-78
2023/07/05 02:10:34;;;;;;;3.97;3.05;;;;;;;;;;5045898;28;20421;-78
2023/07/05 02:13:04;;;;;;;4.75;2.78;;;;;;;;;;5047473;28;20099;-80
2023/07/05 02:15:30;;;;;;;4.97;3.00;;;;;;;;;;5049117;28;20037;-78
2023/07/05 02:17:56;;;;;;;8.70;3.13;;;;;;;;;;5064168;22;20049;-76
2023/07/05 02:20:22;;;;;;;6.60;2.97;;;;;;;;;;5069928;28;20033;-78
2023/07/05 02:22:48;;;;;;;6.45;2.97;;;;;;;;;;5049732;28;20044;-78
2023/07/05 02:25:17;;;;;;;3.25;2.38;;;;;;;;;;5061735;28;20016;-77
2023/07/05 02:27:45;;;;;;;4.68;2.70;;;;;;;;;;5065101;28;20021;-78
2023/07/05 02:30:13;;;;;;;4.63;2.60;;;;;;;;;;5051488;28;20052;-78
2023/07/05 02:32:39;;;;;;;5.82;3.20;;;;;;;;;;5045945;28;20052;-80
2023/07/05 02:35:05;;;;;;;9.55;2.95;;;;;;;;;;5064965;28;20038;-78
2023/07/05 02:37:35;;;;;;;5.72;3.05;;;;;;;;;;5052980;28;20037;-78
2023/07/05 02:40:01;;;;;;;6.93;3.15;;;;;;;;;;5047198;28;20121;-79
2023/07/05 02:42:27;;;;;;;6.18;2.90;;;;;;;;;;5065539;28;20350;-75
2023/07/05 02:44:55;;;;;;;7.03;3.25;;;;;;;;;;5064577;28;20048;-76
2023/07/05 02:47:21;;;;;;;5.05;3.05;;;;;;;;;;5068335;28;20021;-77
2023/07/05 02:49:47;;;;;;;6.43;3.20;;;;;;;;;;5048932;28;20038;-77
2023/07/05 02:52:14;;;;;;;3.85;2.58;;;;;;;;;;5048531;28;20460;-78
2023/07/05 02:54:40;;;;;;;4.35;2.55;;;;;;;;;;5046782;28;20037;-79
2023/07/05 02:57:06;;;;;;;6.63;1.85;;;;;;;;;;5048169;28;20128;-76
2023/07/05 02:59:32;;;;;;;4.95;2.20;;;;;;;;;;5048632;28;20041;-77
2023/07/05 03:02:00;;;;;;;5.40;2.45;;;;;;;;;;5066745;28;20024;-79
2023/07/05 03:04:29;;;;;;;3.42;1.80;;;;;;;;;;5051292;28;20055;-78
2023/07/05 03:06:58;;;;;;;4.43;1.85;;;;;;;;;;5066043;28;20282;-78
2023/07/05 03:09:24;;;;;;;2.63;1.33;;;;;;;;;;5067504;28;20038;-80
2023/07/05 03:11:50;;;;;;;2.72;1.40;;;;;;;;;;5051775;28;20093;-77
2023/07/05 03:14:16;;;;;;;1.95;1.08;;;;;;;;;;5049182;28;20094;-77
2023/07/05 03:16:42;;;;;;;2.20;1.52;;;;;;;;;;5065229;28;21376;-80
2023/07/05 03:19:08;;;;;;;3.38;1.10;;;;;;;;;;5049758;28;20052;-77
2023/07/05 03:21:34;;;;;;;2.35;1.50;;;;;;;;;;5050545;28;20029;-79
2023/07/05 03:24:00;;;;;;;3.83;1.58;;;;;;;;;;5066533;28;20027;-78
2023/07/05 03:26:26;;;;;;;1.65;1.13;;;;;;;;;;5066101;28;20067;-77
2023/07/05 03:28:52;;;;;;;1.65;1.00;;;;;;;;;;5062887;28;20038;-79
2023/07/05 03:31:18;;;;;;;4.10;1.35;;;;;;;;;;5063338;28;20094;-77
2023/07/05 03:33:45;;;;;;;3.13;1.60;;;;;;;;;;5053151;28;20038;-77
2023/07/05 03:36:13;;;;;;;4.70;1.25;;;;;;;;;;5054408;28;20053;-76
2023/07/05 03:38:44;;;;;;;3.47;1.40;;;;;;;;;;5055054;28;20021;-78
2023/07/05 03:41:15;;;;;;;3.00;1.10;;;;;;;;;;5066192;28;20257;-78
2023/07/05 03:43:41;;;;;;;1.67;1.02;;;;;;;;;;5054563;28;20029;-78
2023/07/05 03:46:08;;;;;;;3.83;1.27;;;;;;;;;;5068465;28;20093;-79
2023/07/05 03:48:36;;;;;;;1.92;1.10;;;;;;;;;;5051288;28;20025;-78
2023/07/05 03:51:02;;;;;;;2.40;1.55;;;;;;;;;;5053810;28;20033;-76
2023/07/05 03:53:28;;;;;;;3.45;1.80;;;;;;;;;;5054581;28;20014;-79
2023/07/05 03:56:01;;;;;;;3.42;1.30;;;;;;;;;;5058675;28;20017;-76
2023/07/05 03:58:27;;;;;;;3.47;1.17;;;;;;;;;;5073185;28;20044;-77
2023/07/05 04:00:53;;;;;;;3.20;1.40;;;;;;;;;;5057530;28;20018;-79
2023/07/05 04:03:20;;;;;;;3.00;1.45;;;;;;;;;;5067481;28;20182;-78
2023/07/05 04:05:46;;;;;;;2.70;1.63;;;;;;;;;;5073900;28;20336;-79
2023/07/05 04:08:15;;;;;;;3.75;1.67;;;;;;;;;;5057040;28;20024;-80
2023/07/05 04:10:46;;;;;;;5.32;1.83;;;;;;;;;;5052619;28;20333;-78
2023/07/05 04:13:12;;;;;;;4.93;1.70;;;;;;;;;;5054374;28;20044;-77
2023/07/05 04:15:39;;;;;;;3.85;1.70;;;;;;;;;;5067950;28;20049;-79
2023/07/05 04:18:05;;;;;;;2.70;1.65;;;;;;;;;;5073467;28;20025;-77
2023/07/05 04:20:31;;;;;;;3.08;1.48;;;;;;;;;;5070410;28;20026;-81
2023/07/05 04:22:59;;;;;;;2.60;1.65;;;;;;;;;;5065042;28;20025;-79
2023/07/05 04:25:25;;;;;;;5.53;1.80;;;;;;;;;;5071530;28;20033;-81
2023/07/05 04:27:51;;;;;;;6.30;1.75;;;;;;;;;;5050975;28;20024;-80
2023/07/05 04:30:17;;;;;;;3.30;1.20;;;;;;;;;;5056334;28;20056;-78
2023/07/05 04:32:44;;;;;;;4.13;1.38;;;;;;;;;;5065875;28;20022;-78
2023/07/05 04:35:10;;;;;;;2.97;1.13;;;;;;;;;;5071759;28;20043;-76
2023/07/05 04:37:36;;;;;;;2.67;1.58;;;;;;;;;;5059145;28;20077;-78
2023/07/05 04:40:03;;;;;;;4.50;1.63;;;;;;;;;;5071124;28;20024;-79
2023/07/05 04:42:29;;;;;;;3.22;1.63;;;;;;;;;;5072867;28;20022;-77
2023/07/05 04:44:57;;;;;;;2.78;1.60;;;;;;;;;;5056276;28;20041;-77
2023/07/05 04:47:26;;;;;;;4.30;2.20;;;;;;;;;;5065672;28;20025;-78
2023/07/05 04:49:52;;;;;;;3.80;2.05;;;;;;;;;;5052243;28;20095;-77
2023/07/05 04:52:18;;;;;;;3.85;2.22;;;;;;;;;;5054625;28;20021;-78
2023/07/05 04:54:44;;;;;;;7.15;2.63;;;;;;;;;;5067015;28;20074;-80
2023/07/05 04:57:10;;;;;;;6.30;2.45;;;;;;;;;;5072543;28;20065;-80
2023/07/05 04:59:36;;;;;;;4.05;1.77;;;;;;;;;;5070328;28;20039;-76
2023/07/05 05:02:05;;;;;;;3.47;2.03;;;;;;;;;;5070035;28;20022;-78
2023/07/05 05:04:31;;;;;;;4.65;2.25;;;;;;;;;;5055251;28;20010;-78
2023/07/05 05:06:59;;;;;;;6.03;2.15;;;;;;;;;;5054241;28;20025;-78
2023/07/05 05:09:25;;;;;;;5.97;3.42;;;;;;;;;;5067662;28;20049;-78
2023/07/05 05:11:51;;;;;;;4.72;2.15;;;;;;;;;;5053063;28;20060;-78
2023/07/05 05:14:17;;;;;;;6.68;3.00;;;;;;;;;;5065704;28;20097;-78
2023/07/05 05:16:43;;;;;;;3.38;2.03;;;;;;;;;;5068124;28;20025;-79
2023/07/05 05:19:09;;;;;;;5.70;3.25;;;;;;;;;;5053469;28;20464;-77
2023/07/05 05:21:35;;;;;;;4.75;2.55;;;;;;;;;;5057706;28;20051;-78
2023/07/05 05:24:02;;;;;;;4.07;2.17;;;;;;;;;;5054828;28;20026;-80
2023/07/05 05:26:28;;;;;;;7.28;3.25;;;;;;;;;;5054560;28;20028;-78
2023/07/05 05:28:54;;;;;;;5.05;3.22;;;;;;;;;;5051731;28;20025;-77
2023/07/05 05:31:22;;;;;;;7.13;2.92;;;;;;;;;;5070474;28;20021;-80
2023/07/05 05:33:48;;;;;;;5.25;2.90;;;;;;;;;;5051981;28;20022;-81
2023/07/05 05:36:15;;;;;;;6.60;2.72;;;;;;;;;;5067225;28;20060;-77
2023/07/05 05:38:41;;;;;;;3.88;2.38;;;;;;;;;;5055400;28;20025;-77
2023/07/05 05:41:09;;;;;;;4.30;2.50;;;;;;;;;;5053715;28;20033;-78
2023/07/05 05:43:35;;;;;;;7.88;3.05;;;;;;;;;;5067346;28;20025;-78
2023/07/05 05:46:01;;;;;;;4.15;2.58;;;;;;;;;;5070634;28;20029;-78
2023/07/05 05:48:27;;;;;;;5.15;3.00;;;;;;;;;;5068226;28;21285;-78
2023/07/05 05:50:53;;;;;;;3.50;2.40;;;;;;;;;;5053078;28;20037;-79
2023/07/05 05:53:20;;;;;;;6.93;2.60;;;;;;;;;;5049677;28;20052;-77
2023/07/05 05:55:46;;;;;;;4.30;2.22;;;;;;;;;;5050035;28;20025;-79
2023/07/05 05:58:12;;;;;;;4.43;2.30;;;;;;;;;;5052601;28;20017;-79
2023/07/05 06:00:38;;;;;;;6.10;2.63;;;;;;;;;;5068646;28;20066;-77
2023/07/05 06:03:07;;;;;;;4.95;2.50;;;;;;;;;;5067555;28;20053;-78
2023/07/05 06:05:36;;;;;;;5.20;2.85;;;;;;;;;;5051170;28;20014;-78
2023/07/05 06:08:02;;;;;;;4.38;2.17;;;;;;;;;;5064186;28;20014;-78
2023/07/05 06:10:29;;;;;;;4.00;2.35;;;;;;;;;;5053808;28;20100;-78
2023/07/05 06:12:55;;;;;;;3.08;1.95;;;;;;;;;;5056417;28;20021;-79
2023/07/05 06:15:21;;;;;;;5.10;2.17;;;;;;;;;;5067060;28;20060;-78
2023/07/05 06:17:47;;;;;;;4.57;2.47;;;;;;;;;;5068435;28;20033;-78
2023/07/05 06:20:16;;;;;;;4.68;1.98;;;;;;;;;;5068334;28;20031;-77
2023/07/05 06:22:42;;;;;;;4.35;1.95;;;;;;;;;;5051032;28;20052;-77
2023/07/05 06:25:11;;;;;;;4.15;1.90;;;;;;;;;;5068754;28;20109;-78
2023/07/05 06:27:38;;;;;;;5.28;1.98;;;;;;;;;;5050160;28;20036;-78
2023/07/05 06:30:04;;;;;;;5.80;2.03;;;;;;;;;;5053721;28;20093;-79
2023/07/05 06:32:32;;;;;;;3.63;1.98;;;;;;;;;;5051954;28;20040;-77
2023/07/05 06:35:01;;;;;;;6.53;2.63;;;;;;;;;;5067546;28;20036;-76
2023/07/05 06:37:29;;;;;;;4.28;2.20;;;;;;;;;;5068537;28;20041;-76
2023/07/05 06:39:55;;;;;;;4.07;1.83;;;;;;;;;;5051676;28;20025;-77
2023/07/05 06:42:22;;;;;;;7.93;2.22;;;;;;;;;;5053685;28;20085;-77
2023/07/05 06:44:48;;;;;;;3.47;1.80;;;;;;;;;;5051425;28;20079;-76
2023/07/05 06:47:14;;;;;;;4.60;2.20;;;;;;;;;;5048699;28;20010;-78
2023/07/05 06:49:40;;;;;;;4.60;1.98;;;;;;;;;;5063691;28;20033;-78
2023/07/05 06:52:07;;;;;;;5.93;1.80;;;;;;;;;;5064743;28;20084;-77
2023/07/05 06:54:34;;;;;;;3.30;1.50;;;;;;;;;;5052599;28;20056;-76
2023/07/05 06:57:00;;;;;;;2.47;1.45;;;;;;;;;;5051541;28;20029;-78
2023/07/05 06:59:26;;;;;;;3.58;1.85;;;;;;;;;;5070295;28;20526;-77
2023/07/05 07:01:52;;;;;;;3.33;1.50;;;;;;;;;;5051353;28;20020;-79
2023/07/05 07:04:18;;;;;;;6.40;2.00;;;;;;;;;;5053342;28;20036;-78
2023/07/05 07:06:45;;;;;;;2.58;1.40;;;;;;;;;;5051632;28;20085;-76
2023/07/05 07:09:12;;;;;;;3.53;1.60;;;;;;;;;;5062545;28;20036;-78
2023/07/05 07:11:39;;;;;;;4.05;1.50;;;;;;;;;;5060985;28;20038;-76
2023/07/05 07:14:05;;;;;;;2.63;1.45;;;;;;;;;;5052418;28;20032;-79
2023/07/05 07:16:31;;;;;;;3.15;1.40;;;;;;;;;;5050952;28;20029;-76
2023/07/05 07:18:59;;;;;;;4.50;1.40;;;;;;;;;;5065849;28;20049;-76
2023/07/05 07:21:25;;;;;;;6.85;1.58;;;;;;;;;;5052690;28;20017;-79
2023/07/05 07:23:52;;;;;;;3.97;1.40;;;;;;;;;;5052318;28;20025;-77
2023/07/05 07:26:22;;;;;;;3.08;1.63;;;;;;;;;;5053824;28;20029;-76
2023/07/05 07:28:49;;;;;;;5.97;1.73;;;;;;;;;;5062722;28;20038;-76
2023/07/05 07:31:17;;;;;;;5.10;2.15;;;;;;;;;;5050060;28;20089;-75
2023/07/05 07:33:44;;;;;;;2.20;1.40;;;;;;;;;;5064269;28;20018;-77
2023/07/05 07:36:12;;;;;;;4.43;1.63;;;;;;;;;;5052741;28;20041;-77
2023/07/05 07:38:38;;;;;;;4.57;1.25;;;;;;;;;;5054734;28;20017;-76
2023/07/05 07:41:04;;;;;;;3.85;1.45;;;;;;;;;;5049766;28;20024;-77
2023/07/05 07:43:30;;;;;;;2.42;1.05;;;;;;;;;;5050933;28;20101;-79
2023/07/05 07:45:56;;;;;;;4.22;1.10;;;;;;;;;;5049592;28;20033;-79
2023/07/05 07:48:22;;;;;;;4.05;1.05;;;;;;;;;;5050156;28;20132;-80
2023/07/05 07:50:51;;;;;;;2.42;1.13;;;;;;;;;;5051294;28;20049;-80
2023/07/05 07:53:17;;;;;;;2.55;0.90;;;;;;;;;;5051358;28;20087;-75
2023/07/05 07:55:46;;;;;;;1.75;0.82;;;;;;;;;;5053240;28;20033;-78
2023/07/05 07:58:12;;;;;;;2.03;0.93;;;;;;;;;;5060500;28;20022;-78
2023/07/05 08:00:41;;;;;;;4.65;1.30;;;;;;;;;;5050682;28;20044;-77
2023/07/05 08:03:08;;;;;;;4.43;0.95;;;;;;;;;;5069216;28;20195;-77
2023/07/05 08:05:34;;;;;;;5.22;1.25;;;;;;;;;;5051744;28;20043;-78
2023/07/05 08:08:00;;;;;;;4.43;1.10;;;;;;;;;;5052842;28;20077;-79
2023/07/05 08:10:28;;;;;;;2.05;1.00;;;;;;;;;;5048098;28;20041;-79
2023/07/05 08:12:54;;;;;;;3.67;1.25;;;;;;;;;;5049517;28;20042;-78
2023/07/05 08:15:20;;;;;;;1.75;0.98;;;;;;;;;;5067364;28;20050;-77
2023/07/05 08:17:46;;;;;;;4.60;1.23;;;;;;;;;;5067521;28;20041;-79
2023/07/05 08:20:13;;;;;;;4.47;1.00;;;;;;;;;;5052836;28;20021;-78
2023/07/05 08:22:39;;;;;;;2.97;0.90;;;;;;;;;;5071118;28;20025;-77
2023/07/05 08:25:05;;;;;;;6.15;1.33;;;;;;;;;;5069382;28;20025;-77
2023/07/05 08:27:31;;;;;;;5.50;1.10;;;;;;;;;;5049313;28;20022;-78
2023/07/05 08:29:57;;;;;;;3.88;0.98;;;;;;;;;;5053272;28;20069;-76
2023/07/05 08:32:25;;;;;;;5.35;0.90;;;;;;;;;;5071604;28;20037;-80
2023/07/05 08:34:51;;;;;;;5.90;1.25;;;;;;;;;;5051091;28;20010;-79
2023/07/05 08:37:22;;;;;;;2.80;1.15;;;;;;;;;;5051822;28;20018;-80
2023/07/05 08:39:48;;;;;;;2.95;0.80;;;;;;;;;;5065150;28;20024;-80
2023/07/05 08:42:17;;;;;;;6.53;1.33;;;;;;;;;;5068499;28;20018;-77
2023/07/05 08:44:43;;;;;;;7.55;0.90;;;;;;;;;;5066069;28;20043;-79
2023/07/05 08:47:11;;;;;;;2.95;0.80;;;;;;;;;;5071212;28;20173;-78
2023/07/05 08:49:56;;;;;;;3.22;1.08;;;;;;;;;;5053976;28;20045;-80
2023/07/05 08:52:24;;;;;;;4.35;1.15;;;;;;;;;;5053744;28;20052;-81
2023/07/05 08:54:54;;;;;;;2.88;0.82;;;;;;;;;;5068907;28;20214;-80
2023/07/05 08:57:23;;;;;;;4.75;1.10;;;;;;;;;;5071909;28;20017;-80
2023/07/05 08:59:59;;;;;;;4.63;1.15;;;;;;;;;;5055541;28;20030;-77
2023/07/05 09:02:26;;;;;;;4.63;0.98;;;;;;;;;;5069654;28;20025;-76
2023/07/05 09:04:55;;;;;;;3.15;0.90;;;;;;;;;;5050733;28;20175;-78
2023/07/05 09:07:40;;;;;;;2.05;0.60;;;;;;;;;;5051786;28;20041;-78
2023/07/05 09:10:07;;;;;;;8.15;1.42;;;;;;;;;;5068610;28;20053;-80
2023/07/05 09:12:42;;;;;;;6.65;1.27;;;;;;;;;;5050663;28;20061;-78
2023/07/05 09:15:13;;;;;;;5.75;1.30;;;;;;;;;;5050438;28;20060;-78
2023/07/05 09:18:15;;;;;;;8.68;0.90;;;;;;;;;;5050473;28;20026;-80
2023/07/05 09:20:50;;;;;;;6.93;1.63;;;;;;;;;;4971496;28;20031;-78
2023/07/05 09:23:19;;;;;;;7.97;2.10;;;;;;;;;;5057134;28;20052;-79
2023/07/05 09:25:48;;;;;;;3.38;0.93;;;;;;;;;;5064970;28;20029;-80
2023/07/05 09:28:18;;;;;;;2.90;1.00;;;;;;;;;;5053355;28;20037;-82
2023/07/05 09:30:45;;;;;;;4.20;0.98;;;;;;;;;;5052766;28;20044;-79
2023/07/05 09:33:13;;;;;;;6.18;0.73;;;;;;;;;;5067814;28;20036;-79
2023/07/05 09:35:42;;;;;;;4.93;0.90;;;;;;;;;;5048810;28;20093;-81
2023/07/05 09:38:08;;;;;;;4.63;1.08;;;;;;;;;;5066491;28;20032;-80
2023/07/05 09:40:40;;;;;;;6.32;1.30;;;;;;;;;;5051667;28;20041;-80
2023/07/05 09:43:06;;;;;;;;;;;;;;;;;;5049670;28;20038;-82
2023/07/05 09:45:33;;;;;;;4.95;1.10;;;;;;;;;;5062231;28;19917;-79
2023/07/05 09:48:00;;;;;;;8.43;1.65;;;;;;;;;;5067261;28;20026;-77
2023/07/05 09:50:27;;;;;;;4.72;1.40;;;;;;;;;;5051780;28;20278;-80
2023/07/05 09:52:58;;;;;;;20.25;2.38;;;;;;;;;;5066989;28;20053;-78
2023/07/05 09:55:28;;;;;;;10.73;1.30;;;;;;;;;;5064708;28;20032;-79
2023/07/05 09:57:54;;;;;;;15.40;2.03;;;;;;;;;;5065491;28;20021;-79
2023/07/05 10:00:33;;;;;;;5.05;1.00;;;;;;;;;;5049996;28;20021;-78
2023/07/05 10:03:04;;;;;;;10.00;1.77;;;;;;;;;;5054465;28;20017;-78
2023/07/05 10:05:31;;;;;;;3.58;1.27;;;;;;;;;;5052198;28;20025;-80
2023/07/05 10:07:58;;;;;;;5.55;0.95;;;;;;;;;;5053948;28;20037;-80
2023/07/05 10:10:27;;;;;;;6.32;0.88;;;;;;;;;;5052614;28;20105;-78
2023/07/05 10:13:12;;;;;;;5.40;1.40;;;;;;;;;;5046390;28;20034;-80
2023/07/05 10:15:42;;;;;;;7.18;1.10;;;;;;;;;;5053308;28;20018;-78
2023/07/05 10:18:23;;;;;;;6.40;1.20;;;;;;;;;;5050625;28;20109;-78
2023/07/05 10:20:50;;;;;;;9.13;1.10;;;;;;;;;;5048154;28;20614;-79
2023/07/05 10:23:18;;;;;;;3.65;1.02;;;;;;;;;;5062737;28;20017;-77
2023/07/05 10:25:47;;;;;;;11.05;1.40;;;;;;;;;;5053594;28;20045;-80
2023/07/05 10:28:15;;;;;;;8.10;1.23;;;;;;;;;;5066176;28;20048;-79
2023/07/05 10:30:53;;;;;;;7.88;1.65;;;;;;;;;;5052219;28;20045;-80
2023/07/05 10:33:23;;;;;;;5.80;1.17;;;;;;;;;;5066911;28;20017;-82
2023/07/05 10:36:04;;;;;;;9.90;1.45;;;;;;;;;;5048502;28;20063;-81
2023/07/05 10:38:32;;;;;;;11.63;1.60;;;;;;;;;;5049264;28;20009;-79
2023/07/05 10:41:13;;;;;;;5.78;1.63;;;;;;;;;;5051613;28;20040;-79
2023/07/05 10:43:39;;;;;;;15.03;1.73;;;;;;;;;;5047152;28;20113;-80
2023/07/05 10:46:08;;;;;;;8.20;1.38;;;;;;;;;;5064015;28;20267;-80
2023/07/05 10:48:40;;;;;;;7.70;1.67;;;;;;;;;;5065269;28;20033;-78
2023/07/05 10:51:14;;;;;;;7.07;1.25;;;;;;;;;;5048214;28;20041;-79
2023/07/05 10:53:41;;;;;;;12.48;1.42;;;;;;;;;;5050559;28;20028;-80
2023/07/05 10:56:13;;;;;;;8.25;1.63;;;;;;;;;;5048437;28;20051;-79
2023/07/05 10:58:51;;;;;;;9.77;1.35;;;;;;;;;;5049422;28;20037;-81
2023/07/05 11:01:20;;;;;;;3.90;1.25;;;;;;;;;;5065398;28;20034;-80
2023/07/05 11:03:58;;;;;;;3.70;0.88;;;;;;;;;;5054558;28;20036;-79
2023/07/05 11:06:27;;;;;;;6.70;1.30;;;;;;;;;;5061947;28;20041;-78
2023/07/05 11:08:53;;;;;;;10.07;1.30;;;;;;;;;;5067832;28;20029;-80
2023/07/05 11:11:25;;;;;;;6.45;1.13;;;;;;;;;;5059498;28;20048;-80
2023/07/05 11:13:52;;;;;;;6.55;1.15;;;;;;;;;;5060627;28;20081;-78
2023/07/05 11:16:20;;;;;;;4.70;1.27;;;;;;;;;;5050409;28;20025;-79
2023/07/05 11:18:47;;;;;;;9.15;1.35;;;;;;;;;;5067376;28;20037;-79
2023/07/05 11:21:32;;;;;;;7.93;1.65;;;;;;;;;;5065789;28;20052;-79
2023/07/05 11:23:58;;;;;;;9.13;1.40;;;;;;;;;;5064854;28;20017;-80
2023/07/05 11:26:45;;;;;;;9.50;1.40;;;;;;;;;;5050993;28;20103;-78
2023/07/05 11:29:31;;;;;;;7.90;1.27;;;;;;;;;;5051593;28;20030;-80
2023/07/05 11:32:02;;;;;;;12.23;2.20;;;;;;;;;;5048265;28;20033;-79
2023/07/05 11:34:29;;;;;;;12.57;1.58;;;;;;;;;;5063740;28;20041;-80
2023/07/05 11:37:01;;;;;;;7.85;1.42;;;;;;;;;;5051266;28;20093;-80
2023/07/05 11:39:34;;;;;;;8.30;1.42;;;;;;;;;;5061069;28;20068;-80
2023/07/05 11:42:20;;;;;;;8.18;1.33;;;;;;;;;;5046601;28;20037;-78
2023/07/05 11:44:48;;;;;;;8.05;1.23;;;;;;;;;;5050919;28;20033;-83
2023/07/05 11:47:22;;;;;;;6.95;1.27;;;;;;;;;;5047442;28;20018;-80
2023/07/05 11:50:08;;;;;;;7.65;1.20;;;;;;;;;;5050824;28;20029;-79
2023/07/05 11:52:38;;;;;;;10.38;2.13;;;;;;;;;;5045908;28;20028;-80
2023/07/05 11:55:10;;;;;;;24.17;2.40;;;;;;;;;;5068999;28;20124;-79
2023/07/05 11:57:55;;;;;;;20.48;3.72;;;;;;;;;;5050047;28;20048;-79
2023/07/05 12:00:41;;;;;;;33.55;3.08;;;;;;;;;;5069245;28;20025;-79
2023/07/05 12:03:16;;;;;;;23.23;2.60;;;;;;;;;;5055072;28;20030;-80
2023/07/05 12:05:43;;;;;;;13.30;1.52;;;;;;;;;;5049206;28;20014;-78
2023/07/05 12:08:09;;;;;;;6.68;1.52;;;;;;;;;;5067995;28;20049;-79
2023/07/05 12:10:35;;;;;;;6.10;1.20;;;;;;;;;;5068646;28;20052;-78
2023/07/05 12:13:03;;;;;;;10.00;1.48;;;;;;;;;;5048685;28;20030;-78
2023/07/05 12:15:29;;;;;;;8.07;1.58;;;;;;;;;;5050497;28;20044;-78
2023/07/05 12:17:55;;;;;;;10.98;1.67;;;;;;;;;;5069061;28;20040;-79
2023/07/05 12:20:30;;;;;;;17.80;2.30;;;;;;;;;;5068454;28;20029;-81
2023/07/05 12:22:57;;;;;;;17.00;1.80;;;;;;;;;;5069086;28;20041;-80
2023/07/05 12:25:24;;;;;;;11.93;2.28;;;;;;;;;;5069997;28;20026;-80
2023/07/05 12:27:51;;;;;;;21.10;2.45;;;;;;;;;;5048931;28;20060;-79
2023/07/05 12:30:19;;;;;;;25.65;3.15;;;;;;;;;;5065820;28;20065;-78
2023/07/05 12:32:56;;;;;;;7.97;1.60;;;;;;;;;;5061782;28;20122;-79
2023/07/05 12:35:24;;;;;;;12.73;1.80;;;;;;;;;;5055145;28;20083;-80
2023/07/05 12:37:52;;;;;;;6.65;1.63;;;;;;;;;;5053239;28;20021;-80
2023/07/05 12:40:18;;;;;;;12.15;1.20;;;;;;;;;;5050700;28;20030;-79
2023/07/05 12:42:48;;;;;;;11.75;2.03;;;;;;;;;;5066575;28;20044;-79
2023/07/05 12:45:18;;;;;;;9.68;2.28;;;;;;;;;;5057133;28;20116;-79
2023/07/05 12:47:45;;;;;;;5.78;1.27;;;;;;;;;;5068639;28;20087;-79
2023/07/05 12:50:11;;;;;;;10.88;1.67;;;;;;;;;;5065126;28;20041;-80
2023/07/05 12:52:37;;;;;;;9.68;1.27;;;;;;;;;;5067662;28;20069;-79
2023/07/05 12:55:03;;;;;;;10.93;1.45;;;;;;;;;;5065678;28;20025;-79
2023/07/05 12:57:33;;;;;;;4.30;1.35;;;;;;;;;;5049327;28;20109;-78
2023/07/05 13:00:07;;;;;;;4.03;1.40;;;;;;;;;;5048442;28;20025;-78
2023/07/05 13:02:35;;;;;;;9.38;1.90;;;;;;;;;;5066783;28;20026;-77
2023/07/05 13:05:04;;;;;;;9.02;1.48;;;;;;;;;;5049991;28;20055;-78
2023/07/05 13:07:32;;;;;;;4.53;1.33;;;;;;;;;;5055654;28;20044;-78
2023/07/05 13:10:06;;;;;;;3.88;1.52;;;;;;;;;;5053680;28;20049;-80
2023/07/05 13:12:45;;;;;;;8.73;1.40;;;;;;;;;;5050796;28;20047;-79
2023/07/05 13:15:11;;;;;;;14.07;1.40;;;;;;;;;;5069606;28;20036;-80
2023/07/05 13:17:38;;;;;;;18.63;1.73;;;;;;;;;;5067753;28;20013;-78
2023/07/05 13:20:13;;;;;;;6.75;1.88;;;;;;;;;;5052025;28;20149;-80
2023/07/05 13:22:46;;;;;;;4.93;1.13;;;;;;;;;;5054511;28;20024;-79
2023/07/05 13:25:25;;;;;;;4.00;1.10;;;;;;;;;;5053644;28;20029;-77
2023/07/05 13:27:53;;;;;;;15.35;1.40;;;;;;;;;;5058848;28;20013;-80
2023/07/05 13:30:19;;;;;;;7.45;1.63;;;;;;;;;;5067215;28;20131;-79
2023/07/05 13:32:48;;;;;;;5.72;1.58;;;;;;;;;;5050690;28;20048;-81
2023/07/05 13:35:14;;;;;;;13.95;1.90;;;;;;;;;;5064794;28;20093;-80
2023/07/05 13:37:40;;;;;;;6.40;1.30;;;;;;;;;;5071643;28;20318;-79
2023/07/05 13:40:09;;;;;;;4.22;1.10;;;;;;;;;;5049427;28;20301;-78
2023/07/05 13:42:36;;;;;;;19.25;2.10;;;;;;;;;;5065938;28;20014;-78
2023/07/05 13:45:03;;;;;;;14.25;2.28;;;;;;;;;;5066811;28;20110;-78
2023/07/05 13:47:30;;;;;;;21.98;2.10;;;;;;;;;;5064889;28;20128;-79
2023/07/05 13:49:56;;;;;;;28.63;4.13;;;;;;;;;;5052702;28;20113;-80
2023/07/05 13:52:22;;;;;;;8.88;1.35;;;;;;;;;;5069075;28;20017;-79
2023/07/05 13:54:48;;;;;;;6.80;1.33;;;;;;;;;;5054632;28;20034;-79
2023/07/05 13:57:18;;;;;;;3.05;0.65;;;;;;;;;;5056415;28;20099;-79
2023/07/05 13:59:44;;;;;;;5.25;1.00;;;;;;;;;;5054938;28;20029;-78
2023/07/05 14:02:26;;;;;;;10.70;1.27;;;;;;;;;;5070602;28;20020;-79
2023/07/05 14:04:53;;;;;;;5.47;1.45;;;;;;;;;;5051722;28;20706;-79
2023/07/05 14:07:19;;;;;;;9.63;1.33;;;;;;;;;;5056346;28;20030;-79
2023/07/05 14:09:45;;;;;;;3.70;0.98;;;;;;;;;;5051020;28;20080;-80
2023/07/05 14:12:15;;;;;;;5.75;0.95;;;;;;;;;;5067460;28;20060;-78
2023/07/05 14:14:41;;;;;;;3.42;1.10;;;;;;;;;;5069650;28;20010;-80
2023/07/05 14:17:18;;;;;;;5.75;1.42;;;;;;;;;;5066229;28;20129;-80
2023/07/05 14:19:44;;;;;;;3.22;1.00;;;;;;;;;;5064125;28;20026;-78
2023/07/05 14:22:18;;;;;;;5.45;1.30;;;;;;;;;;5054602;28;20037;-79
2023/07/05 14:24:46;;;;;;;7.28;1.15;;;;;;;;;;5056275;28;20034;-80
2023/07/05 14:27:16;;;;;;;5.68;0.95;;;;;;;;;;5041067;28;20047;-81
2023/07/05 14:29:42;;;;;;;4.80;0.80;;;;;;;;;;5040256;28;20040;-82
2023/07/05 14:32:13;;;;;;;3.70;0.82;;;;;;;;;;5053338;28;20025;-82
2023/07/05 14:34:39;;;;;;;4.90;1.05;;;;;;;;;;5034802;28;20029;-80
2023/07/05 14:37:06;;;;;;;2.95;0.57;;;;;;;;;;5039627;28;20076;-79
2023/07/05 14:39:32;;;;;;;3.38;1.08;;;;;;;;;;5046056;28;20025;-79
2023/07/05 14:41:58;;;;;;;5.15;0.77;;;;;;;;;;5066646;28;20029;-80
2023/07/05 14:44:24;;;;;;;8.55;0.93;;;;;;;;;;5049773;28;20021;-79
2023/07/05 14:46:50;;;;;;;10.52;1.27;;;;;;;;;;5068238;28;20009;-78
2023/07/05 14:49:16;;;;;;;8.93;1.38;;;;;;;;;;5050630;28;20084;-80
2023/07/05 14:51:42;;;;;;;5.93;1.10;;;;;;;;;;5069338;28;20060;-79